createdAt,value
2018-05-12T00:00:18.475Z,53.80
2018-05-12T00:02:46.757Z,53.90
2018-05-12T00:05:15.116Z,54.00
2018-05-12T00:07:43.427Z,54.30
2018-05-12T00:10:11.707Z,54.10
2018-05-12T00:12:40.841Z,54.20
2018-05-12T00:15:09.175Z,54.10
2018-05-12T00:17:37.471Z,54.30
2018-05-12T00:20:07.648Z,54.40
2018-05-12T00:22:35.953Z,54.30
2018-05-12T00:25:04.390Z,54.50
2018-05-12T00:27:32.704Z,54.50
2018-05-12T00:30:02.020Z,54.50
2018-05-12T00:32:31.077Z,54.80
2018-05-12T00:34:59.411Z,54.70
2018-05-12T00:37:28.520Z,54.90
2018-05-12T00:39:56.825Z,54.80
2018-05-12T00:42:25.145Z,54.80
2018-05-12T00:44:54.223Z,55.00
2018-05-12T00:47:22.567Z,55.00
2018-05-12T00:49:50.868Z,55.10
2018-05-12T00:52:19.197Z,55.40
2018-05-12T00:54:47.540Z,55.90
2018-05-12T00:57:15.828Z,55.90
2018-05-12T00:59:44.915Z,56.00
2018-05-12T01:02:13.238Z,56.00
2018-05-12T01:04:55.574Z,56.00
2018-05-12T01:07:23.908Z,56.00
2018-05-12T01:09:52.230Z,56.10
2018-05-12T01:12:20.494Z,55.90
2018-05-12T01:14:48.844Z,56.10
2018-05-12T01:17:17.126Z,56.20
2018-05-12T01:19:45.395Z,56.10
2018-05-12T01:22:13.725Z,56.10
2018-05-12T01:24:42.030Z,56.30
2018-05-12T01:27:11.091Z,56.60
2018-05-12T01:29:39.393Z,56.60
2018-05-12T01:32:07.690Z,56.80
2018-05-12T01:34:42.810Z,57.00
2018-05-12T01:37:11.141Z,56.90
2018-05-12T01:39:39.420Z,57.00
2018-05-12T01:42:07.713Z,57.20
2018-05-12T01:44:36.044Z,57.50
2018-05-12T01:47:05.167Z,57.60
2018-05-12T01:49:33.492Z,57.50
2018-05-12T01:52:01.835Z,57.80
2018-05-12T01:54:30.228Z,57.70
2018-05-12T01:56:58.525Z,57.80
2018-05-12T01:59:26.888Z,57.60
2018-05-12T02:01:55.208Z,57.80
2018-05-12T02:04:24.277Z,57.80
2018-05-12T02:06:52.632Z,57.80
2018-05-12T02:09:20.914Z,58.50
2018-05-12T02:11:49.253Z,58.00
2018-05-12T02:14:17.555Z,58.00
2018-05-12T02:16:45.896Z,57.90
2018-05-12T02:19:14.211Z,57.80
2018-05-12T02:21:42.550Z,57.80
2018-05-12T02:24:11.612Z,57.80
2018-05-12T02:26:39.910Z,57.70
2018-05-12T02:29:08.972Z,57.70
2018-05-12T02:31:37.273Z,57.60
2018-05-12T02:34:06.355Z,57.80
2018-05-12T02:36:34.717Z,57.70
2018-05-12T02:39:02.997Z,57.90
2018-05-12T02:41:31.316Z,57.90
2018-05-12T02:44:00.351Z,57.90
2018-05-12T02:46:28.659Z,57.90
2018-05-12T02:48:56.957Z,58.00
2018-05-12T02:51:26.054Z,58.10
2018-05-12T02:53:55.164Z,58.00
2018-05-12T02:56:23.527Z,58.00
2018-05-12T02:58:52.593Z,58.20
2018-05-12T03:01:20.964Z,58.20
2018-05-12T03:03:49.295Z,58.20
2018-05-12T03:06:17.621Z,58.10
2018-05-12T03:08:45.896Z,58.20
2018-05-12T03:11:14.196Z,58.40
2018-05-12T03:13:42.497Z,58.40
2018-05-12T03:16:11.591Z,58.50
2018-05-12T03:18:40.673Z,58.50
2018-05-12T03:21:09.723Z,58.50
2018-05-12T03:23:38.076Z,58.50
2018-05-12T03:26:06.423Z,58.50
2018-05-12T03:28:35.462Z,58.70
2018-05-12T03:31:04.616Z,59.20
2018-05-12T03:33:33.655Z,58.70
2018-05-12T03:36:01.964Z,58.60
2018-05-12T03:38:30.273Z,58.80
2018-05-12T03:40:59.310Z,59.00
2018-05-12T03:43:27.615Z,58.90
2018-05-12T03:45:55.948Z,59.10
2018-05-12T03:48:24.280Z,59.20
2018-05-12T03:50:52.635Z,59.20
2018-05-12T03:53:20.982Z,59.30
2018-05-12T03:55:49.253Z,59.60
2018-05-12T03:58:17.575Z,59.60
2018-05-12T04:00:45.890Z,59.70
2018-05-12T04:03:15.005Z,59.80
2018-05-12T04:06:01.131Z,59.70
2018-05-12T04:12:00.119Z,60.20
2018-05-12T04:14:28.456Z,59.50
2018-05-12T04:16:56.810Z,59.50
2018-05-12T04:19:25.871Z,59.90
2018-05-12T04:21:54.195Z,59.80
2018-05-12T04:24:22.500Z,60.40
2018-05-12T04:26:50.864Z,60.70
2018-05-12T04:29:19.163Z,60.80
2018-05-12T04:31:47.480Z,61.60
2018-05-12T04:34:15.808Z,60.80
2018-05-12T04:36:44.149Z,61.10
2018-05-12T04:39:13.216Z,61.50
2018-05-12T04:41:41.575Z,61.50
2018-05-12T04:46:44.368Z,61.70
2018-05-12T04:49:12.715Z,61.70
2018-05-12T04:51:41.115Z,61.90
2018-05-12T04:54:10.180Z,62.10
2018-05-12T04:56:38.474Z,62.10
2018-05-12T04:59:06.813Z,62.40
2018-05-12T05:01:35.144Z,62.60
2018-05-12T05:04:03.477Z,62.80
2018-05-12T05:06:31.796Z,62.80
2018-05-12T05:09:00.117Z,62.90
2018-05-12T05:11:28.394Z,63.00
2018-05-12T05:13:56.810Z,63.00
2018-05-12T05:16:25.113Z,63.20
2018-05-12T05:18:53.398Z,63.40
2018-05-12T05:21:21.645Z,63.60
2018-05-12T05:23:49.960Z,63.60
2018-05-12T05:26:18.262Z,63.90
2018-05-12T05:28:46.519Z,64.10
2018-05-12T05:31:14.788Z,64.00
2018-05-12T05:33:43.059Z,64.20
2018-05-12T05:36:11.397Z,64.20
2018-05-12T05:38:39.724Z,64.20
2018-05-12T05:41:08.015Z,64.20
2018-05-12T05:43:36.285Z,64.10
2018-05-12T05:46:04.649Z,64.30
2018-05-12T05:48:32.948Z,64.10
2018-05-12T05:51:01.194Z,64.20
2018-05-12T05:53:29.434Z,64.00
2018-05-12T05:55:58.492Z,63.40
2018-05-12T05:58:26.781Z,63.40
2018-05-12T06:00:55.016Z,63.20
2018-05-12T06:03:24.548Z,63.20
2018-05-12T06:05:52.807Z,62.60
2018-05-12T06:08:21.136Z,62.10
2018-05-12T06:10:49.445Z,61.70
2018-05-12T06:13:18.138Z,61.50
2018-05-12T06:15:46.601Z,61.20
2018-05-12T06:18:14.985Z,60.90
2018-05-12T06:20:43.953Z,60.00
2018-05-12T06:23:12.248Z,60.00
2018-05-12T06:25:40.493Z,59.70
2018-05-12T06:28:09.681Z,59.20
2018-05-12T06:30:38.063Z,59.20
2018-05-12T06:33:06.421Z,59.20
2018-05-12T06:35:53.004Z,58.90
2018-05-12T06:38:22.219Z,58.40
2018-05-12T06:40:50.590Z,58.40
2018-05-12T06:43:18.943Z,58.10
2018-05-12T06:45:47.317Z,58.10
2018-05-12T06:48:15.732Z,57.80
2018-05-12T06:50:44.134Z,57.60
2018-05-12T06:55:46.972Z,57.10
2018-05-12T06:58:15.428Z,56.60
2018-05-12T07:00:43.806Z,56.30
2018-05-12T07:03:12.129Z,56.20
2018-05-12T07:05:40.535Z,56.10
2018-05-12T07:08:10.077Z,56.50
2018-05-12T07:10:39.196Z,55.30
2018-05-12T07:13:07.520Z,55.80
2018-05-12T07:15:35.802Z,55.20
2018-05-12T07:18:04.088Z,55.10
2018-05-12T07:20:32.356Z,55.00
2018-05-12T07:23:00.629Z,54.90
2018-05-12T07:25:28.938Z,54.50
2018-05-12T07:27:57.956Z,54.30
2018-05-12T07:30:27.802Z,54.20
2018-05-12T07:32:56.166Z,54.40
2018-05-12T07:35:24.692Z,54.20
2018-05-12T07:37:53.192Z,54.00
2018-05-12T07:40:24.808Z,53.60
2018-05-12T07:42:53.106Z,54.10
2018-05-12T07:45:22.210Z,53.60
2018-05-12T07:47:50.590Z,53.50
2018-05-12T07:53:18.990Z,53.10
2018-05-12T07:55:48.670Z,52.10
2018-05-12T07:58:17.916Z,52.50
2018-05-12T08:00:51.175Z,52.50
2018-05-12T08:04:28.344Z,52.40
2018-05-12T08:10:59.475Z,52.10
2018-05-12T08:13:27.832Z,51.80
2018-05-12T08:15:56.085Z,51.60
2018-05-12T08:18:24.354Z,51.00
2018-05-12T08:20:52.882Z,50.60
2018-05-12T08:23:21.250Z,50.30
2018-05-12T08:25:50.281Z,50.10
2018-05-12T08:28:18.537Z,50.00
2018-05-12T08:30:46.819Z,49.90
2018-05-12T08:33:15.113Z,49.80
2018-05-12T08:35:43.369Z,49.80
2018-05-12T08:38:11.618Z,49.60
2018-05-12T08:40:39.887Z,48.80
2018-05-12T08:43:08.133Z,48.40
2018-05-12T08:45:36.395Z,48.10
2018-05-12T08:48:04.655Z,47.50
2018-05-12T08:50:32.909Z,47.30
2018-05-12T08:53:01.938Z,47.00
2018-05-12T08:55:30.220Z,47.00
2018-05-12T08:57:58.486Z,45.70
2018-05-12T09:00:26.736Z,44.90
2018-05-12T09:02:54.969Z,44.00
2018-05-12T09:05:23.283Z,43.80
2018-05-12T09:07:51.793Z,43.30
2018-05-12T09:10:20.819Z,43.50
2018-05-12T09:12:49.183Z,43.60
2018-05-12T09:15:18.907Z,43.90
2018-05-12T09:17:47.317Z,43.40
2018-05-12T09:20:15.678Z,43.20
2018-05-12T09:22:44.048Z,43.20
2018-05-12T09:25:12.372Z,42.70
2018-05-12T09:27:40.702Z,42.50
2018-05-12T09:30:09.020Z,41.90
2018-05-12T09:32:38.076Z,41.40
2018-05-12T09:35:06.387Z,41.40
2018-05-12T09:37:35.475Z,40.70
2018-05-12T09:40:04.621Z,40.10
2018-05-12T09:42:32.926Z,40.00
2018-05-12T09:45:02.172Z,39.50
2018-05-12T09:47:30.584Z,39.60
2018-05-12T09:49:58.893Z,38.90
2018-05-12T09:52:27.293Z,39.00
2018-05-12T09:54:55.643Z,38.20
2018-05-12T09:57:23.995Z,37.30
2018-05-12T09:59:52.374Z,36.50
2018-05-12T10:02:21.397Z,36.90
2018-05-12T10:04:49.738Z,35.60
2018-05-12T10:07:18.103Z,35.50
2018-05-12T10:09:46.509Z,35.90
2018-05-12T10:12:14.878Z,36.10
2018-05-12T10:14:43.278Z,35.80
2018-05-12T10:17:11.733Z,35.40
2018-05-12T10:19:40.101Z,34.90
2018-05-12T10:22:08.454Z,35.10
2018-05-12T10:24:36.845Z,34.30
2018-05-12T10:27:05.226Z,34.30
2018-05-12T10:29:33.575Z,33.60
2018-05-12T10:32:01.984Z,33.30
2018-05-12T10:34:30.383Z,33.60
2018-05-12T10:36:58.738Z,33.70
2018-05-12T10:39:27.940Z,33.50
2018-05-12T10:41:57.077Z,33.50
2018-05-12T10:44:25.476Z,33.50
2018-05-12T10:46:53.962Z,34.00
2018-05-12T10:49:22.272Z,33.80
2018-05-12T10:51:50.622Z,33.30
2018-05-12T10:54:19.034Z,33.30
2018-05-12T10:56:47.559Z,33.30
2018-05-12T10:59:15.978Z,33.20
2018-05-12T11:01:45.080Z,33.40
2018-05-12T11:04:14.233Z,33.30
2018-05-12T11:06:42.634Z,33.30
2018-05-12T11:09:10.961Z,33.10
2018-05-12T11:11:39.377Z,33.10
2018-05-12T11:14:07.677Z,33.10
2018-05-12T11:16:36.058Z,33.10
2018-05-12T11:19:04.493Z,32.40
2018-05-12T11:21:32.970Z,31.60
2018-05-12T11:24:01.365Z,32.10
2018-05-12T11:26:30.413Z,32.20
2018-05-12T11:28:59.592Z,32.70
2018-05-12T11:31:28.536Z,32.70
2018-05-12T11:33:56.848Z,32.50
2018-05-12T11:36:26.029Z,32.60
2018-05-12T11:38:54.425Z,32.10
2018-05-12T11:41:22.768Z,32.10
2018-05-12T11:43:51.076Z,31.90
2018-05-12T11:46:19.425Z,31.70
2018-05-12T11:48:47.763Z,31.70
2018-05-12T11:51:17.161Z,32.20
2018-05-12T11:53:45.434Z,32.20
2018-05-12T11:56:13.821Z,31.50
2018-05-12T11:58:42.148Z,31.40
2018-05-12T12:01:10.524Z,31.70
2018-05-12T12:03:42.288Z,32.10
2018-05-12T12:06:10.542Z,31.20
2018-05-12T12:08:38.934Z,32.00
2018-05-12T12:11:07.270Z,32.20
2018-05-12T12:13:35.572Z,32.00
2018-05-12T12:16:04.616Z,32.20
2018-05-12T12:18:32.956Z,32.20
2018-05-12T12:21:01.409Z,32.10
2018-05-12T12:23:29.670Z,31.60
2018-05-12T12:25:58.022Z,31.60
2018-05-12T12:31:00.723Z,31.40
2018-05-12T12:33:29.144Z,31.30
2018-05-12T12:35:57.484Z,31.20
2018-05-12T12:38:25.858Z,31.50
2018-05-12T12:40:54.276Z,31.30
2018-05-12T12:43:22.665Z,31.40
2018-05-12T12:45:51.068Z,31.30
2018-05-12T12:48:19.450Z,30.90
2018-05-12T12:50:47.829Z,31.30
2018-05-12T12:53:16.123Z,31.50
2018-05-12T12:55:44.455Z,31.20
2018-05-12T12:58:13.565Z,31.00
2018-05-12T13:00:41.884Z,31.00
2018-05-12T13:03:10.195Z,31.10
2018-05-12T13:08:13.694Z,31.30
2018-05-12T13:10:42.045Z,31.40
2018-05-12T13:13:10.445Z,31.40
2018-05-12T13:15:38.799Z,31.20
2018-05-12T13:18:07.895Z,30.70
2018-05-12T13:20:36.255Z,30.70
2018-05-12T13:23:04.636Z,30.70
2018-05-12T13:25:33.061Z,31.00
2018-05-12T13:28:01.469Z,30.30
2018-05-12T13:30:29.828Z,30.20
2018-05-12T13:32:58.172Z,30.50
2018-05-12T13:35:26.604Z,30.70
2018-05-12T13:37:56.179Z,30.50
2018-05-12T13:40:24.512Z,30.40
2018-05-12T13:42:52.889Z,30.30
2018-05-12T13:45:21.200Z,30.00
2018-05-12T13:47:49.521Z,29.60
2018-05-12T13:50:17.798Z,29.70
2018-05-12T13:52:46.094Z,29.70
2018-05-12T13:55:15.130Z,30.00
2018-05-12T13:57:43.420Z,29.90
2018-05-12T14:00:11.721Z,30.00
2018-05-12T14:02:40.000Z,30.10
2018-05-12T14:05:08.270Z,30.20
2018-05-12T14:07:36.549Z,30.30
2018-05-12T14:10:04.887Z,30.70
2018-05-12T14:12:33.178Z,29.90
2018-05-12T14:15:01.484Z,30.00
2018-05-12T14:17:30.527Z,30.00
2018-05-12T14:19:58.834Z,30.00
2018-05-12T14:22:27.178Z,29.90
2018-05-12T14:24:56.349Z,30.20
2018-05-12T14:27:24.648Z,30.20
2018-05-12T14:29:52.994Z,30.50
2018-05-12T14:32:22.161Z,30.20
2018-05-12T14:34:50.462Z,30.10
2018-05-12T14:37:18.756Z,29.90
2018-05-12T14:39:47.804Z,30.00
2018-05-12T14:42:16.084Z,29.90
2018-05-12T14:44:44.393Z,29.90
2018-05-12T14:47:12.629Z,30.00
2018-05-12T14:49:40.889Z,30.20
2018-05-12T14:52:09.167Z,30.20
2018-05-12T14:54:37.549Z,30.10
2018-05-12T14:57:05.892Z,30.10
2018-05-12T14:59:34.948Z,30.40
2018-05-12T15:02:03.231Z,30.40
2018-05-12T15:04:31.597Z,30.50
2018-05-12T15:06:59.927Z,30.30
2018-05-12T15:12:03.416Z,30.20
2018-05-12T15:14:31.757Z,30.20
2018-05-12T15:17:01.774Z,30.20
2018-05-12T15:19:30.086Z,30.20
2018-05-12T15:21:58.444Z,30.10
2018-05-12T15:24:26.769Z,30.40
2018-05-12T15:26:55.121Z,30.40
2018-05-12T15:29:23.516Z,30.20
2018-05-12T15:31:51.848Z,29.90
2018-05-12T15:34:20.230Z,30.00
2018-05-12T15:36:48.574Z,30.20
2018-05-12T15:39:16.956Z,30.20
2018-05-12T15:41:45.278Z,30.30
2018-05-12T15:44:14.387Z,30.50
2018-05-12T15:46:43.578Z,30.60
2018-05-12T15:49:11.888Z,30.50
2018-05-12T15:51:41.105Z,30.90
2018-05-12T15:54:09.556Z,30.50
2018-05-12T15:56:38.804Z,30.80
2018-05-12T15:59:07.435Z,30.80
2018-05-12T16:01:35.895Z,30.70
2018-05-12T16:04:04.478Z,30.90
2018-05-12T16:06:39.549Z,31.10
2018-05-12T16:09:08.222Z,31.20
2018-05-12T16:11:37.350Z,31.10
2018-05-12T16:14:05.819Z,31.00
2018-05-12T16:16:34.221Z,31.10
2018-05-12T16:19:02.585Z,31.10
2018-05-12T16:21:31.032Z,31.10
2018-05-12T16:23:59.438Z,31.00
2018-05-12T16:26:29.176Z,31.00
2018-05-12T16:28:58.262Z,31.10
2018-05-12T16:31:26.784Z,31.00
2018-05-12T16:33:56.535Z,31.00
2018-05-12T16:36:24.994Z,31.00
2018-05-12T16:38:53.397Z,31.00
2018-05-12T16:41:22.121Z,30.90
2018-05-12T16:43:51.559Z,31.00
2018-05-12T16:46:20.016Z,31.30
2018-05-12T16:48:48.468Z,31.30
2018-05-12T16:51:16.851Z,31.00
2018-05-12T16:53:45.273Z,31.20
2018-05-12T16:56:13.727Z,31.20
2018-05-12T16:58:42.283Z,31.50
2018-05-12T17:01:10.590Z,31.80
2018-05-12T17:03:39.040Z,31.70
2018-05-12T17:06:07.529Z,31.90
2018-05-12T17:08:36.017Z,32.10
2018-05-12T17:11:06.034Z,32.40
2018-05-12T17:13:34.447Z,32.30
2018-05-12T17:16:02.821Z,32.20
2018-05-12T17:18:31.228Z,32.20
2018-05-12T17:20:59.673Z,32.40
2018-05-12T17:23:28.179Z,32.50
2018-05-12T17:25:56.593Z,32.60
2018-05-12T17:28:25.136Z,32.70
2018-05-12T17:30:53.494Z,32.90
2018-05-12T17:33:21.861Z,33.10
2018-05-12T17:35:50.276Z,33.20
2018-05-12T17:38:18.810Z,33.30
2018-05-12T17:40:47.200Z,33.50
2018-05-12T17:43:15.559Z,33.60
2018-05-12T17:45:43.941Z,33.60
2018-05-12T17:48:15.812Z,33.50
2018-05-12T17:50:44.922Z,33.60
2018-05-12T17:53:15.541Z,33.50
2018-05-12T17:55:50.286Z,33.60
2018-05-12T17:58:18.635Z,33.70
2018-05-12T18:00:47.091Z,33.90
2018-05-12T18:03:16.467Z,34.10
2018-05-12T18:05:44.908Z,34.10
2018-05-12T18:08:13.353Z,34.30
2018-05-12T18:10:42.986Z,34.40
2018-05-12T18:13:11.442Z,34.60
2018-05-12T18:15:39.859Z,35.30
2018-05-12T18:18:08.392Z,35.00
2018-05-12T18:20:37.744Z,35.10
2018-05-12T18:23:07.018Z,35.20
2018-05-12T18:25:36.150Z,35.70
2018-05-12T18:28:04.630Z,35.60
2018-05-12T18:30:33.742Z,36.50
2018-05-12T18:33:03.017Z,35.90
2018-05-12T18:35:31.408Z,36.10
2018-05-12T18:37:59.862Z,36.30
2018-05-12T18:40:28.212Z,36.50
2018-05-12T18:42:56.569Z,36.60
2018-05-12T18:45:24.954Z,36.80
2018-05-12T18:47:53.277Z,37.10
2018-05-12T18:50:22.378Z,37.50
2018-05-12T18:52:50.812Z,37.40
2018-05-12T18:55:19.145Z,37.80
2018-05-12T18:57:47.543Z,38.10
2018-05-12T19:00:15.943Z,38.30
2018-05-12T19:02:44.352Z,38.60
2018-05-12T19:05:12.731Z,39.00
2018-05-12T19:07:41.014Z,39.20
2018-05-12T19:10:09.394Z,39.80
2018-05-12T19:12:38.541Z,40.30
2018-05-12T19:15:06.954Z,40.20
2018-05-12T19:17:35.308Z,40.50
2018-05-12T19:20:03.667Z,40.80
2018-05-12T19:22:32.071Z,41.10
2018-05-12T19:25:00.357Z,41.40
2018-05-12T19:27:28.723Z,42.30
2018-05-12T19:29:57.090Z,41.90
2018-05-12T19:32:25.377Z,42.20
2018-05-12T19:34:53.644Z,42.20
2018-05-12T19:37:21.923Z,42.60
2018-05-12T19:39:50.186Z,43.00
2018-05-12T19:42:18.513Z,43.30
2018-05-12T19:44:47.405Z,44.00
2018-05-12T19:47:15.773Z,44.20
2018-05-12T19:49:44.125Z,46.20
2018-05-12T19:52:12.560Z,45.60
2018-05-12T19:54:41.034Z,45.80
2018-05-12T19:57:09.612Z,45.60
2018-05-12T19:59:38.020Z,46.20
2018-05-12T20:02:07.580Z,47.10
2018-05-12T20:07:21.539Z,48.20
2018-05-12T20:13:05.236Z,49.90
2018-05-12T20:15:33.739Z,48.20
2018-05-12T20:18:02.048Z,48.10
2018-05-12T20:20:31.056Z,48.60
2018-05-12T20:22:59.371Z,48.50
2018-05-12T20:25:27.650Z,48.80
2018-05-12T20:27:56.005Z,49.10
2018-05-12T20:30:24.353Z,49.10
2018-05-12T20:32:55.949Z,49.40
2018-05-12T20:35:24.308Z,49.30
2018-05-12T20:37:52.773Z,49.60
2018-05-12T20:40:21.847Z,49.80
2018-05-12T20:42:50.149Z,49.70
2018-05-12T20:45:19.191Z,50.00
2018-05-12T20:47:47.496Z,49.90
2018-05-12T20:50:16.980Z,50.20
2018-05-12T20:52:45.996Z,50.10
2018-05-12T20:55:15.187Z,50.50
2018-05-12T20:57:44.577Z,50.70
2018-05-12T21:00:12.885Z,50.60
2018-05-12T21:02:41.974Z,51.00
2018-05-12T21:05:11.037Z,51.10
2018-05-12T21:07:39.347Z,51.00
2018-05-12T21:10:08.385Z,51.50
2018-05-12T21:12:36.653Z,51.30
2018-05-12T21:15:04.901Z,51.60
2018-05-12T21:17:33.920Z,51.60
2018-05-12T21:20:02.235Z,51.50
2018-05-12T21:22:31.303Z,52.30
2018-05-12T21:24:59.594Z,52.20
2018-05-12T21:27:27.922Z,52.40
2018-05-12T21:29:56.963Z,52.50
2018-05-12T21:32:25.269Z,52.40
2018-05-12T21:34:53.540Z,52.90
2018-05-12T21:37:21.800Z,53.20
2018-05-12T21:39:50.040Z,53.10
2018-05-12T21:42:18.344Z,53.30
2018-05-12T21:44:46.666Z,53.60
2018-05-12T21:47:14.954Z,53.50
2018-05-12T21:49:44.027Z,54.10
2018-05-12T21:52:12.317Z,54.00
2018-05-12T21:54:40.577Z,54.00
2018-05-12T21:57:08.867Z,54.10
2018-05-12T21:59:37.138Z,54.20
2018-05-12T22:02:05.408Z,54.70
2018-05-12T22:04:34.446Z,54.80
2018-05-12T22:07:02.716Z,54.70
2018-05-12T22:09:31.030Z,55.00
2018-05-12T22:11:59.296Z,55.00
2018-05-12T22:14:27.599Z,55.30
2018-05-12T22:16:56.307Z,55.20
2018-05-12T22:19:24.759Z,55.40
2018-05-12T22:21:53.099Z,55.40
2018-05-12T22:24:21.441Z,55.50
2018-05-12T22:26:49.972Z,55.50
2018-05-12T22:29:18.849Z,55.60
2018-05-12T22:31:47.166Z,55.60
2018-05-12T22:34:15.480Z,55.60
2018-05-12T22:36:44.538Z,56.00
2018-05-12T22:39:12.841Z,55.90
2018-05-12T22:41:41.086Z,55.90
2018-05-12T22:44:09.597Z,56.00
2018-05-12T22:46:37.921Z,56.00
2018-05-12T22:49:06.172Z,56.10
2018-05-12T22:51:35.277Z,56.30
2018-05-12T22:54:04.361Z,56.50
2018-05-12T22:56:33.439Z,56.50
2018-05-12T22:59:02.436Z,56.40
2018-05-12T23:01:30.901Z,56.70
2018-05-12T23:04:00.368Z,56.70
2018-05-12T23:06:28.682Z,56.80
2018-05-12T23:08:56.960Z,57.10
2018-05-12T23:11:25.959Z,57.70
2018-05-12T23:13:54.862Z,57.50
2018-05-12T23:16:23.271Z,57.60
2018-05-12T23:18:52.312Z,57.80
2018-05-12T23:21:20.555Z,57.70
2018-05-12T23:23:48.826Z,57.90
2018-05-12T23:26:17.099Z,58.00
2018-05-12T23:28:45.511Z,58.50
2018-05-12T23:31:13.830Z,58.10
2018-05-12T23:33:42.127Z,58.30
2018-05-12T23:36:11.202Z,58.50
2018-05-12T23:38:39.484Z,58.50
2018-05-12T23:41:08.510Z,59.00
2018-05-12T23:43:36.759Z,58.50
2018-05-12T23:46:05.890Z,58.80
2018-05-12T23:48:34.141Z,58.70
2018-05-12T23:51:23.537Z,59.00
2018-05-12T23:53:51.807Z,58.90
2018-05-12T23:56:20.133Z,59.00
2018-05-12T23:58:48.439Z,59.00
